sensor_id;sensor_type;location;lat;lon;timestamp;P1;durP1;ratioP1;P2;durP2;ratioP2
83487;SDS011;73424;49.994;8.184;2024-02-16T00:00:01;6.53;;;4.55;;
83487;SDS011;73424;49.994;8.184;2024-02-16T00:02:27;10.10;;;5.47;;
83487;SDS011;73424;49.994;8.184;2024-02-16T00:04:52;8.93;;;5.30;;
83487;SDS011;73424;49.994;8.184;2024-02-16T00:07:18;7.55;;;5.03;;
83487;SDS011;73424;49.994;8.184;2024-02-16T00:09:43;7.70;;;5.07;;
83487;SDS011;73424;49.994;8.184;2024-02-16T00:12:09;5.77;;;4.27;;
83487;SDS011;73424;49.994;8.184;2024-02-16T00:14:34;6.27;;;4.90;;
83487;SDS011;73424;49.994;8.184;2024-02-16T00:16:59;7.10;;;4.75;;
83487;SDS011;73424;49.994;8.184;2024-02-16T00:19:25;8.63;;;5.57;;
83487;SDS011;73424;49.994;8.184;2024-02-16T00:21:51;7.43;;;5.78;;
83487;SDS011;73424;49.994;8.184;2024-02-16T00:24:16;7.23;;;4.63;;
83487;SDS011;73424;49.994;8.184;2024-02-16T00:26:42;9.25;;;4.55;;
83487;SDS011;73424;49.994;8.184;2024-02-16T00:29:10;7.03;;;4.40;;
83487;SDS011;73424;49.994;8.184;2024-02-16T00:31:35;6.70;;;4.65;;
83487;SDS011;73424;49.994;8.184;2024-02-16T00:34:00;11.05;;;5.97;;
83487;SDS011;73424;49.994;8.184;2024-02-16T00:36:26;7.95;;;4.65;;
83487;SDS011;73424;49.994;8.184;2024-02-16T00:38:52;8.00;;;5.00;;
83487;SDS011;73424;49.994;8.184;2024-02-16T00:41:21;6.63;;;5.20;;
83487;SDS011;73424;49.994;8.184;2024-02-16T00:43:48;6.80;;;5.25;;
83487;SDS011;73424;49.994;8.184;2024-02-16T00:46:14;9.00;;;5.43;;
83487;SDS011;73424;49.994;8.184;2024-02-16T00:48:40;7.65;;;5.60;;
83487;SDS011;73424;49.994;8.184;2024-02-16T00:51:05;8.30;;;5.82;;
83487;SDS011;73424;49.994;8.184;2024-02-16T00:53:30;9.87;;;7.57;;
83487;SDS011;73424;49.994;8.184;2024-02-16T00:55:55;7.77;;;4.93;;
83487;SDS011;73424;49.994;8.184;2024-02-16T00:58:21;7.80;;;5.73;;
83487;SDS011;73424;49.994;8.184;2024-02-16T01:00:46;8.98;;;5.50;;
83487;SDS011;73424;49.994;8.184;2024-02-16T01:03:11;7.75;;;5.50;;
83487;SDS011;73424;49.994;8.184;2024-02-16T01:05:38;9.68;;;6.68;;
83487;SDS011;73424;49.994;8.184;2024-02-16T01:08:03;12.48;;;5.47;;
83487;SDS011;73424;49.994;8.184;2024-02-16T01:10:29;10.88;;;5.95;;
83487;SDS011;73424;49.994;8.184;2024-02-16T01:12:54;8.88;;;5.80;;
83487;SDS011;73424;49.994;8.184;2024-02-16T01:15:21;9.25;;;6.10;;
83487;SDS011;73424;49.994;8.184;2024-02-16T01:17:46;7.13;;;5.00;;
83487;SDS011;73424;49.994;8.184;2024-02-16T01:20:11;7.95;;;5.82;;
83487;SDS011;73424;49.994;8.184;2024-02-16T01:22:37;9.25;;;5.22;;
83487;SDS011;73424;49.994;8.184;2024-02-16T01:25:03;12.05;;;5.25;;
83487;SDS011;73424;49.994;8.184;2024-02-16T01:27:29;6.70;;;4.63;;
83487;SDS011;73424;49.994;8.184;2024-02-16T01:29:54;7.77;;;6.20;;
83487;SDS011;73424;49.994;8.184;2024-02-16T01:32:19;9.77;;;5.37;;
83487;SDS011;73424;49.994;8.184;2024-02-16T01:34:44;7.80;;;4.63;;
83487;SDS011;73424;49.994;8.184;2024-02-16T01:37:12;8.75;;;4.68;;
83487;SDS011;73424;49.994;8.184;2024-02-16T01:39:39;8.30;;;4.35;;
83487;SDS011;73424;49.994;8.184;2024-02-16T01:42:05;6.05;;;5.20;;
83487;SDS011;73424;49.994;8.184;2024-02-16T01:44:30;14.07;;;5.50;;
83487;SDS011;73424;49.994;8.184;2024-02-16T01:46:56;7.20;;;4.43;;
83487;SDS011;73424;49.994;8.184;2024-02-16T01:49:21;8.23;;;4.85;;
83487;SDS011;73424;49.994;8.184;2024-02-16T01:51:47;8.43;;;5.95;;
83487;SDS011;73424;49.994;8.184;2024-02-16T01:54:14;6.43;;;5.25;;
83487;SDS011;73424;49.994;8.184;2024-02-16T01:56:43;8.98;;;6.00;;
83487;SDS011;73424;49.994;8.184;2024-02-16T01:59:09;11.95;;;5.80;;
83487;SDS011;73424;49.994;8.184;2024-02-16T02:01:34;9.70;;;5.57;;
83487;SDS011;73424;49.994;8.184;2024-02-16T02:04:00;9.82;;;5.50;;
83487;SDS011;73424;49.994;8.184;2024-02-16T02:06:26;9.13;;;4.78;;
83487;SDS011;73424;49.994;8.184;2024-02-16T02:08:52;7.47;;;5.18;;
83487;SDS011;73424;49.994;8.184;2024-02-16T02:11:19;9.38;;;5.63;;
83487;SDS011;73424;49.994;8.184;2024-02-16T02:13:45;7.72;;;5.32;;
83487;SDS011;73424;49.994;8.184;2024-02-16T02:16:10;8.40;;;5.30;;
83487;SDS011;73424;49.994;8.184;2024-02-16T02:18:35;11.52;;;4.35;;
83487;SDS011;73424;49.994;8.184;2024-02-16T02:21:01;7.03;;;5.40;;
83487;SDS011;73424;49.994;8.184;2024-02-16T02:23:26;8.13;;;5.70;;
83487;SDS011;73424;49.994;8.184;2024-02-16T02:25:52;7.60;;;5.38;;
83487;SDS011;73424;49.994;8.184;2024-02-16T02:28:18;8.70;;;5.63;;
83487;SDS011;73424;49.994;8.184;2024-02-16T02:30:44;8.45;;;5.97;;
83487;SDS011;73424;49.994;8.184;2024-02-16T02:33:12;8.60;;;4.47;;
83487;SDS011;73424;49.994;8.184;2024-02-16T02:35:38;9.55;;;5.05;;
83487;SDS011;73424;49.994;8.184;2024-02-16T02:38:04;10.15;;;5.40;;
83487;SDS011;73424;49.994;8.184;2024-02-16T02:40:30;8.43;;;4.78;;
83487;SDS011;73424;49.994;8.184;2024-02-16T02:42:55;8.00;;;6.30;;
83487;SDS011;73424;49.994;8.184;2024-02-16T02:45:21;8.00;;;5.40;;
83487;SDS011;73424;49.994;8.184;2024-02-16T02:47:46;8.52;;;5.80;;
83487;SDS011;73424;49.994;8.184;2024-02-16T02:50:11;10.37;;;5.90;;
83487;SDS011;73424;49.994;8.184;2024-02-16T02:52:37;12.52;;;5.88;;
83487;SDS011;73424;49.994;8.184;2024-02-16T02:55:02;7.27;;;5.10;;
83487;SDS011;73424;49.994;8.184;2024-02-16T02:57:28;7.95;;;5.70;;
83487;SDS011;73424;49.994;8.184;2024-02-16T03:00:00;7.70;;;5.47;;
83487;SDS011;73424;49.994;8.184;2024-02-16T03:02:29;9.45;;;5.65;;
83487;SDS011;73424;49.994;8.184;2024-02-16T03:04:54;7.93;;;6.57;;
83487;SDS011;73424;49.994;8.184;2024-02-16T03:07:19;7.90;;;5.23;;
83487;SDS011;73424;49.994;8.184;2024-02-16T03:09:44;8.63;;;5.87;;
83487;SDS011;73424;49.994;8.184;2024-02-16T03:12:11;7.20;;;5.15;;
83487;SDS011;73424;49.994;8.184;2024-02-16T03:14:37;11.80;;;4.82;;
83487;SDS011;73424;49.994;8.184;2024-02-16T03:17:02;8.30;;;5.38;;
83487;SDS011;73424;49.994;8.184;2024-02-16T03:19:28;9.85;;;5.43;;
83487;SDS011;73424;49.994;8.184;2024-02-16T03:21:55;8.30;;;5.00;;
83487;SDS011;73424;49.994;8.184;2024-02-16T03:24:20;8.38;;;5.35;;
83487;SDS011;73424;49.994;8.184;2024-02-16T03:26:47;5.53;;;4.63;;
83487;SDS011;73424;49.994;8.184;2024-02-16T03:29:13;8.43;;;5.20;;
83487;SDS011;73424;49.994;8.184;2024-02-16T03:31:38;10.77;;;5.57;;
83487;SDS011;73424;49.994;8.184;2024-02-16T03:34:04;7.13;;;4.87;;
83487;SDS011;73424;49.994;8.184;2024-02-16T03:36:29;9.17;;;5.73;;
83487;SDS011;73424;49.994;8.184;2024-02-16T03:38:55;8.48;;;5.57;;
83487;SDS011;73424;49.994;8.184;2024-02-16T03:41:22;8.07;;;4.97;;
83487;SDS011;73424;49.994;8.184;2024-02-16T03:43:48;9.68;;;6.00;;
83487;SDS011;73424;49.994;8.184;2024-02-16T03:46:14;8.27;;;6.03;;
83487;SDS011;73424;49.994;8.184;2024-02-16T03:48:40;7.75;;;5.40;;
83487;SDS011;73424;49.994;8.184;2024-02-16T03:51:06;10.00;;;6.15;;
83487;SDS011;73424;49.994;8.184;2024-02-16T03:53:31;14.02;;;4.78;;
83487;SDS011;73424;49.994;8.184;2024-02-16T03:55:57;8.90;;;5.03;;
83487;SDS011;73424;49.994;8.184;2024-02-16T03:58:22;7.28;;;4.55;;
83487;SDS011;73424;49.994;8.184;2024-02-16T04:00:49;7.15;;;5.65;;
83487;SDS011;73424;49.994;8.184;2024-02-16T04:03:15;7.93;;;4.50;;
83487;SDS011;73424;49.994;8.184;2024-02-16T04:05:40;9.63;;;4.53;;
83487;SDS011;73424;49.994;8.184;2024-02-16T04:08:06;9.73;;;6.18;;
83487;SDS011;73424;49.994;8.184;2024-02-16T04:10:32;8.18;;;4.97;;
83487;SDS011;73424;49.994;8.184;2024-02-16T04:12:58;7.63;;;5.80;;
83487;SDS011;73424;49.994;8.184;2024-02-16T04:15:23;7.73;;;5.33;;
83487;SDS011;73424;49.994;8.184;2024-02-16T04:17:49;9.30;;;5.90;;
83487;SDS011;73424;49.994;8.184;2024-02-16T04:20:15;8.83;;;5.57;;
83487;SDS011;73424;49.994;8.184;2024-02-16T04:22:41;7.63;;;5.97;;
83487;SDS011;73424;49.994;8.184;2024-02-16T04:25:07;8.32;;;6.20;;
83487;SDS011;73424;49.994;8.184;2024-02-16T04:27:33;8.77;;;6.72;;
83487;SDS011;73424;49.994;8.184;2024-02-16T04:30:00;8.02;;;6.20;;
83487;SDS011;73424;49.994;8.184;2024-02-16T04:32:26;12.43;;;5.63;;
83487;SDS011;73424;49.994;8.184;2024-02-16T04:34:51;11.97;;;6.23;;
83487;SDS011;73424;49.994;8.184;2024-02-16T04:37:17;14.30;;;5.70;;
83487;SDS011;73424;49.994;8.184;2024-02-16T04:39:44;9.95;;;5.68;;
83487;SDS011;73424;49.994;8.184;2024-02-16T04:42:09;9.20;;;5.82;;
83487;SDS011;73424;49.994;8.184;2024-02-16T04:44:38;9.60;;;5.53;;
83487;SDS011;73424;49.994;8.184;2024-02-16T04:47:04;7.72;;;5.65;;
83487;SDS011;73424;49.994;8.184;2024-02-16T04:49:31;7.03;;;5.35;;
83487;SDS011;73424;49.994;8.184;2024-02-16T04:51:57;8.45;;;5.38;;
83487;SDS011;73424;49.994;8.184;2024-02-16T04:54:22;8.60;;;6.63;;
83487;SDS011;73424;49.994;8.184;2024-02-16T04:56:48;11.10;;;5.38;;
83487;SDS011;73424;49.994;8.184;2024-02-16T04:59:14;10.95;;;6.00;;
83487;SDS011;73424;49.994;8.184;2024-02-16T05:01:40;12.23;;;6.70;;
83487;SDS011;73424;49.994;8.184;2024-02-16T05:04:05;8.45;;;5.65;;
83487;SDS011;73424;49.994;8.184;2024-02-16T05:06:31;11.93;;;6.45;;
83487;SDS011;73424;49.994;8.184;2024-02-16T05:08:57;10.60;;;6.45;;
83487;SDS011;73424;49.994;8.184;2024-02-16T05:11:23;9.55;;;6.25;;
83487;SDS011;73424;49.994;8.184;2024-02-16T05:13:49;7.95;;;5.40;;
83487;SDS011;73424;49.994;8.184;2024-02-16T05:16:15;10.32;;;5.53;;
83487;SDS011;73424;49.994;8.184;2024-02-16T05:18:41;9.98;;;6.00;;
83487;SDS011;73424;49.994;8.184;2024-02-16T05:21:06;9.43;;;6.30;;
83487;SDS011;73424;49.994;8.184;2024-02-16T05:23:32;11.23;;;5.82;;
83487;SDS011;73424;49.994;8.184;2024-02-16T05:25:57;10.10;;;5.80;;
83487;SDS011;73424;49.994;8.184;2024-02-16T05:28:23;12.40;;;5.97;;
83487;SDS011;73424;49.994;8.184;2024-02-16T05:30:48;9.33;;;5.50;;
83487;SDS011;73424;49.994;8.184;2024-02-16T05:33:13;9.00;;;5.63;;
83487;SDS011;73424;49.994;8.184;2024-02-16T05:35:41;7.40;;;6.00;;
83487;SDS011;73424;49.994;8.184;2024-02-16T05:38:09;9.60;;;6.18;;
83487;SDS011;73424;49.994;8.184;2024-02-16T05:40:56;10.32;;;5.95;;
83487;SDS011;73424;49.994;8.184;2024-02-16T05:43:22;9.45;;;6.18;;
83487;SDS011;73424;49.994;8.184;2024-02-16T05:45:51;10.63;;;6.10;;
83487;SDS011;73424;49.994;8.184;2024-02-16T05:48:16;10.57;;;6.72;;
83487;SDS011;73424;49.994;8.184;2024-02-16T05:50:42;8.60;;;6.63;;
83487;SDS011;73424;49.994;8.184;2024-02-16T05:53:09;11.82;;;6.72;;
83487;SDS011;73424;49.994;8.184;2024-02-16T05:55:35;10.00;;;7.72;;
83487;SDS011;73424;49.994;8.184;2024-02-16T05:58:01;10.15;;;6.47;;
83487;SDS011;73424;49.994;8.184;2024-02-16T06:00:26;8.73;;;6.03;;
83487;SDS011;73424;49.994;8.184;2024-02-16T06:02:52;11.63;;;7.13;;
83487;SDS011;73424;49.994;8.184;2024-02-16T06:05:17;11.75;;;7.05;;
83487;SDS011;73424;49.994;8.184;2024-02-16T06:07:45;11.73;;;6.50;;
83487;SDS011;73424;49.994;8.184;2024-02-16T06:10:10;11.77;;;7.82;;
83487;SDS011;73424;49.994;8.184;2024-02-16T06:12:37;12.15;;;7.65;;
83487;SDS011;73424;49.994;8.184;2024-02-16T06:15:03;14.15;;;8.13;;
83487;SDS011;73424;49.994;8.184;2024-02-16T06:17:29;8.80;;;6.40;;
83487;SDS011;73424;49.994;8.184;2024-02-16T06:19:54;11.33;;;5.93;;
83487;SDS011;73424;49.994;8.184;2024-02-16T06:22:19;11.70;;;6.70;;
83487;SDS011;73424;49.994;8.184;2024-02-16T06:24:45;11.43;;;6.40;;
83487;SDS011;73424;49.994;8.184;2024-02-16T06:27:10;8.73;;;5.90;;
83487;SDS011;73424;49.994;8.184;2024-02-16T06:29:35;9.40;;;5.70;;
83487;SDS011;73424;49.994;8.184;2024-02-16T06:32:01;9.90;;;6.43;;
83487;SDS011;73424;49.994;8.184;2024-02-16T06:34:27;9.30;;;6.68;;
83487;SDS011;73424;49.994;8.184;2024-02-16T06:36:52;18.73;;;8.25;;
83487;SDS011;73424;49.994;8.184;2024-02-16T06:39:18;10.18;;;7.68;;
83487;SDS011;73424;49.994;8.184;2024-02-16T06:41:43;9.93;;;6.72;;
83487;SDS011;73424;49.994;8.184;2024-02-16T06:44:10;15.20;;;8.75;;
83487;SDS011;73424;49.994;8.184;2024-02-16T06:46:36;15.75;;;7.60;;
83487;SDS011;73424;49.994;8.184;2024-02-16T06:49:02;10.47;;;9.13;;
83487;SDS011;73424;49.994;8.184;2024-02-16T06:51:27;11.47;;;6.50;;
83487;SDS011;73424;49.994;8.184;2024-02-16T06:53:53;10.93;;;7.00;;
83487;SDS011;73424;49.994;8.184;2024-02-16T06:56:19;11.98;;;7.10;;
83487;SDS011;73424;49.994;8.184;2024-02-16T06:58:45;13.52;;;8.73;;
83487;SDS011;73424;49.994;8.184;2024-02-16T07:01:12;12.80;;;9.13;;
83487;SDS011;73424;49.994;8.184;2024-02-16T07:03:37;10.55;;;8.10;;
83487;SDS011;73424;49.994;8.184;2024-02-16T07:06:03;14.40;;;8.37;;
83487;SDS011;73424;49.994;8.184;2024-02-16T07:08:29;11.85;;;8.07;;
83487;SDS011;73424;49.994;8.184;2024-02-16T07:10:54;12.20;;;8.33;;
83487;SDS011;73424;49.994;8.184;2024-02-16T07:13:21;13.20;;;7.45;;
83487;SDS011;73424;49.994;8.184;2024-02-16T07:15:47;12.70;;;7.50;;
83487;SDS011;73424;49.994;8.184;2024-02-16T07:18:13;12.40;;;8.40;;
83487;SDS011;73424;49.994;8.184;2024-02-16T07:20:38;12.50;;;8.05;;
83487;SDS011;73424;49.994;8.184;2024-02-16T07:23:03;12.27;;;9.02;;
83487;SDS011;73424;49.994;8.184;2024-02-16T07:25:29;11.30;;;8.00;;
83487;SDS011;73424;49.994;8.184;2024-02-16T07:27:54;11.13;;;8.53;;
83487;SDS011;73424;49.994;8.184;2024-02-16T07:30:19;11.77;;;7.13;;
83487;SDS011;73424;49.994;8.184;2024-02-16T07:32:48;11.98;;;10.32;;
83487;SDS011;73424;49.994;8.184;2024-02-16T07:35:15;14.25;;;8.32;;
83487;SDS011;73424;49.994;8.184;2024-02-16T07:37:41;10.77;;;7.72;;
83487;SDS011;73424;49.994;8.184;2024-02-16T07:40:09;12.55;;;7.93;;
83487;SDS011;73424;49.994;8.184;2024-02-16T07:42:41;10.07;;;7.28;;
83487;SDS011;73424;49.994;8.184;2024-02-16T07:45:08;11.07;;;7.10;;
83487;SDS011;73424;49.994;8.184;2024-02-16T07:47:34;11.50;;;7.85;;
83487;SDS011;73424;49.994;8.184;2024-02-16T07:50:00;10.13;;;7.20;;
83487;SDS011;73424;49.994;8.184;2024-02-16T07:52:25;11.05;;;7.68;;
83487;SDS011;73424;49.994;8.184;2024-02-16T07:54:50;11.03;;;8.43;;
83487;SDS011;73424;49.994;8.184;2024-02-16T07:57:17;18.95;;;8.35;;
83487;SDS011;73424;49.994;8.184;2024-02-16T07:59:42;11.95;;;7.15;;
83487;SDS011;73424;49.994;8.184;2024-02-16T08:02:08;10.38;;;7.95;;
83487;SDS011;73424;49.994;8.184;2024-02-16T08:04:34;12.43;;;9.57;;
83487;SDS011;73424;49.994;8.184;2024-02-16T08:07:00;12.77;;;7.78;;
83487;SDS011;73424;49.994;8.184;2024-02-16T08:09:26;9.77;;;7.43;;
83487;SDS011;73424;49.994;8.184;2024-02-16T08:11:52;9.25;;;8.20;;
83487;SDS011;73424;49.994;8.184;2024-02-16T08:14:17;10.40;;;7.77;;
83487;SDS011;73424;49.994;8.184;2024-02-16T08:16:42;10.20;;;7.60;;
83487;SDS011;73424;49.994;8.184;2024-02-16T08:19:07;10.70;;;8.15;;
83487;SDS011;73424;49.994;8.184;2024-02-16T08:21:33;10.15;;;7.88;;
83487;SDS011;73424;49.994;8.184;2024-02-16T08:23:58;12.70;;;7.72;;
83487;SDS011;73424;49.994;8.184;2024-02-16T08:26:23;11.60;;;7.75;;
83487;SDS011;73424;49.994;8.184;2024-02-16T08:28:49;13.68;;;8.05;;
83487;SDS011;73424;49.994;8.184;2024-02-16T08:31:15;9.48;;;6.38;;
83487;SDS011;73424;49.994;8.184;2024-02-16T08:33:42;10.50;;;7.55;;
83487;SDS011;73424;49.994;8.184;2024-02-16T08:36:08;10.68;;;7.78;;
83487;SDS011;73424;49.994;8.184;2024-02-16T08:38:34;10.10;;;7.90;;
83487;SDS011;73424;49.994;8.184;2024-02-16T08:41:01;13.57;;;8.85;;
83487;SDS011;73424;49.994;8.184;2024-02-16T08:43:28;7.68;;;6.93;;
83487;SDS011;73424;49.994;8.184;2024-02-16T08:45:53;7.95;;;7.10;;
83487;SDS011;73424;49.994;8.184;2024-02-16T08:48:19;10.07;;;7.13;;
83487;SDS011;73424;49.994;8.184;2024-02-16T08:50:45;11.55;;;8.35;;
83487;SDS011;73424;49.994;8.184;2024-02-16T08:53:10;14.23;;;8.27;;
83487;SDS011;73424;49.994;8.184;2024-02-16T08:55:36;10.43;;;8.27;;
83487;SDS011;73424;49.994;8.184;2024-02-16T08:58:01;14.93;;;8.57;;
83487;SDS011;73424;49.994;8.184;2024-02-16T09:00:26;11.73;;;8.23;;
83487;SDS011;73424;49.994;8.184;2024-02-16T09:02:53;11.55;;;8.23;;
83487;SDS011;73424;49.994;8.184;2024-02-16T09:05:19;11.43;;;8.52;;
83487;SDS011;73424;49.994;8.184;2024-02-16T09:07:45;9.85;;;8.70;;
83487;SDS011;73424;49.994;8.184;2024-02-16T09:10:12;9.88;;;7.57;;
83487;SDS011;73424;49.994;8.184;2024-02-16T09:12:39;9.40;;;8.40;;
83487;SDS011;73424;49.994;8.184;2024-02-16T09:15:04;9.30;;;6.78;;
83487;SDS011;73424;49.994;8.184;2024-02-16T09:17:31;9.80;;;8.13;;
83487;SDS011;73424;49.994;8.184;2024-02-16T09:19:56;13.23;;;8.68;;
83487;SDS011;73424;49.994;8.184;2024-02-16T09:22:22;12.27;;;9.05;;
83487;SDS011;73424;49.994;8.184;2024-02-16T09:24:47;8.77;;;7.70;;
83487;SDS011;73424;49.994;8.184;2024-02-16T09:27:12;13.13;;;8.95;;
83487;SDS011;73424;49.994;8.184;2024-02-16T09:29:38;12.75;;;8.32;;
83487;SDS011;73424;49.994;8.184;2024-02-16T09:32:03;9.27;;;6.57;;
83487;SDS011;73424;49.994;8.184;2024-02-16T09:34:29;11.15;;;7.78;;
83487;SDS011;73424;49.994;8.184;2024-02-16T09:36:54;10.98;;;8.38;;
83487;SDS011;73424;49.994;8.184;2024-02-16T09:39:20;10.73;;;7.82;;
83487;SDS011;73424;49.994;8.184;2024-02-16T09:41:46;9.63;;;8.07;;
83487;SDS011;73424;49.994;8.184;2024-02-16T09:46:41;10.00;;;7.30;;
83487;SDS011;73424;49.994;8.184;2024-02-16T09:49:06;10.48;;;8.13;;
83487;SDS011;73424;49.994;8.184;2024-02-16T09:51:32;10.23;;;8.13;;
83487;SDS011;73424;49.994;8.184;2024-02-16T09:54:01;10.90;;;8.15;;
83487;SDS011;73424;49.994;8.184;2024-02-16T09:56:27;9.95;;;8.80;;
83487;SDS011;73424;49.994;8.184;2024-02-16T09:58:53;12.73;;;7.93;;
83487;SDS011;73424;49.994;8.184;2024-02-16T10:01:20;11.50;;;7.53;;
83487;SDS011;73424;49.994;8.184;2024-02-16T10:03:47;10.90;;;7.88;;
83487;SDS011;73424;49.994;8.184;2024-02-16T10:06:14;10.38;;;8.63;;
83487;SDS011;73424;49.994;8.184;2024-02-16T10:08:47;10.73;;;8.15;;
83487;SDS011;73424;49.994;8.184;2024-02-16T10:11:16;12.23;;;9.00;;
83487;SDS011;73424;49.994;8.184;2024-02-16T10:13:43;11.10;;;8.30;;
83487;SDS011;73424;49.994;8.184;2024-02-16T10:16:29;10.30;;;7.25;;
83487;SDS011;73424;49.994;8.184;2024-02-16T10:18:56;9.15;;;7.75;;
83487;SDS011;73424;49.994;8.184;2024-02-16T10:21:29;10.32;;;7.78;;
83487;SDS011;73424;49.994;8.184;2024-02-16T10:24:02;10.48;;;7.55;;
83487;SDS011;73424;49.994;8.184;2024-02-16T10:26:31;10.80;;;7.63;;
83487;SDS011;73424;49.994;8.184;2024-02-16T10:28:57;9.63;;;6.82;;
83487;SDS011;73424;49.994;8.184;2024-02-16T10:31:25;10.13;;;7.45;;
83487;SDS011;73424;49.994;8.184;2024-02-16T10:34:02;10.88;;;9.15;;
83487;SDS011;73424;49.994;8.184;2024-02-16T10:36:34;10.65;;;9.15;;
83487;SDS011;73424;49.994;8.184;2024-02-16T10:39:01;9.88;;;8.18;;
83487;SDS011;73424;49.994;8.184;2024-02-16T10:41:30;11.35;;;7.78;;
83487;SDS011;73424;49.994;8.184;2024-02-16T10:44:00;15.52;;;8.25;;
83487;SDS011;73424;49.994;8.184;2024-02-16T10:46:26;10.65;;;8.07;;
83487;SDS011;73424;49.994;8.184;2024-02-16T10:48:52;9.88;;;7.57;;
83487;SDS011;73424;49.994;8.184;2024-02-16T10:51:19;13.80;;;8.55;;
83487;SDS011;73424;49.994;8.184;2024-02-16T10:53:48;10.75;;;7.97;;
83487;SDS011;73424;49.994;8.184;2024-02-16T10:56:16;9.68;;;7.05;;
83487;SDS011;73424;49.994;8.184;2024-02-16T10:58:53;10.18;;;8.10;;
83487;SDS011;73424;49.994;8.184;2024-02-16T11:01:19;10.60;;;7.45;;
83487;SDS011;73424;49.994;8.184;2024-02-16T11:03:45;12.05;;;8.18;;
83487;SDS011;73424;49.994;8.184;2024-02-16T11:06:14;9.03;;;7.40;;
83487;SDS011;73424;49.994;8.184;2024-02-16T11:08:43;10.50;;;7.38;;
83487;SDS011;73424;49.994;8.184;2024-02-16T11:11:09;12.15;;;8.82;;
83487;SDS011;73424;49.994;8.184;2024-02-16T11:13:38;9.10;;;8.15;;
83487;SDS011;73424;49.994;8.184;2024-02-16T11:16:09;9.60;;;8.73;;
83487;SDS011;73424;49.994;8.184;2024-02-16T11:18:42;10.43;;;7.30;;
83487;SDS011;73424;49.994;8.184;2024-02-16T11:21:15;9.25;;;7.53;;
83487;SDS011;73424;49.994;8.184;2024-02-16T11:23:41;9.35;;;7.32;;
83487;SDS011;73424;49.994;8.184;2024-02-16T11:26:10;8.85;;;7.05;;
83487;SDS011;73424;49.994;8.184;2024-02-16T11:28:38;8.90;;;7.32;;
83487;SDS011;73424;49.994;8.184;2024-02-16T11:31:08;10.60;;;8.80;;
83487;SDS011;73424;49.994;8.184;2024-02-16T11:33:34;14.18;;;8.60;;
83487;SDS011;73424;49.994;8.184;2024-02-16T11:36:00;13.20;;;9.10;;
83487;SDS011;73424;49.994;8.184;2024-02-16T11:38:26;10.77;;;8.40;;
83487;SDS011;73424;49.994;8.184;2024-02-16T11:40:59;10.32;;;9.00;;
83487;SDS011;73424;49.994;8.184;2024-02-16T11:43:29;9.85;;;8.35;;
83487;SDS011;73424;49.994;8.184;2024-02-16T11:45:55;13.38;;;8.20;;
83487;SDS011;73424;49.994;8.184;2024-02-16T11:48:21;10.48;;;8.02;;
83487;SDS011;73424;49.994;8.184;2024-02-16T11:50:48;10.05;;;7.00;;
83487;SDS011;73424;49.994;8.184;2024-02-16T11:53:16;9.38;;;7.10;;
83487;SDS011;73424;49.994;8.184;2024-02-16T11:55:49;11.57;;;8.13;;
83487;SDS011;73424;49.994;8.184;2024-02-16T11:58:18;10.75;;;7.00;;
83487;SDS011;73424;49.994;8.184;2024-02-16T12:03:10;9.82;;;7.68;;
83487;SDS011;73424;49.994;8.184;2024-02-16T12:05:36;11.07;;;6.47;;
83487;SDS011;73424;49.994;8.184;2024-02-16T12:08:01;9.20;;;6.60;;
83487;SDS011;73424;49.994;8.184;2024-02-16T12:10:28;6.68;;;5.70;;
83487;SDS011;73424;49.994;8.184;2024-02-16T12:12:54;8.77;;;5.63;;
83487;SDS011;73424;49.994;8.184;2024-02-16T12:15:19;14.55;;;6.95;;
83487;SDS011;73424;49.994;8.184;2024-02-16T12:17:46;6.82;;;5.75;;
83487;SDS011;73424;49.994;8.184;2024-02-16T12:20:12;9.30;;;5.67;;
83487;SDS011;73424;49.994;8.184;2024-02-16T12:22:40;11.27;;;4.70;;
83487;SDS011;73424;49.994;8.184;2024-02-16T12:25:06;9.83;;;6.13;;
83487;SDS011;73424;49.994;8.184;2024-02-16T12:27:31;7.15;;;5.70;;
83487;SDS011;73424;49.994;8.184;2024-02-16T12:29:56;10.40;;;5.63;;
83487;SDS011;73424;49.994;8.184;2024-02-16T12:32:22;8.53;;;4.60;;
83487;SDS011;73424;49.994;8.184;2024-02-16T12:34:47;8.17;;;5.43;;
83487;SDS011;73424;49.994;8.184;2024-02-16T12:37:14;6.78;;;5.20;;
83487;SDS011;73424;49.994;8.184;2024-02-16T12:39:39;6.07;;;4.13;;
83487;SDS011;73424;49.994;8.184;2024-02-16T12:42:05;7.18;;;5.28;;
83487;SDS011;73424;49.994;8.184;2024-02-16T12:44:30;6.45;;;4.75;;
83487;SDS011;73424;49.994;8.184;2024-02-16T12:46:55;6.47;;;4.57;;
83487;SDS011;73424;49.994;8.184;2024-02-16T12:49:21;5.63;;;4.22;;
83487;SDS011;73424;49.994;8.184;2024-02-16T12:51:50;7.68;;;4.38;;
83487;SDS011;73424;49.994;8.184;2024-02-16T12:54:16;5.78;;;3.80;;
83487;SDS011;73424;49.994;8.184;2024-02-16T12:56:44;5.38;;;4.65;;
83487;SDS011;73424;49.994;8.184;2024-02-16T12:59:13;7.13;;;4.15;;
83487;SDS011;73424;49.994;8.184;2024-02-16T13:01:38;5.63;;;4.15;;
83487;SDS011;73424;49.994;8.184;2024-02-16T13:04:05;5.85;;;4.25;;
83487;SDS011;73424;49.994;8.184;2024-02-16T13:06:31;8.15;;;4.30;;
83487;SDS011;73424;49.994;8.184;2024-02-16T13:08:56;6.90;;;4.28;;
83487;SDS011;73424;49.994;8.184;2024-02-16T13:11:21;5.80;;;3.45;;
83487;SDS011;73424;49.994;8.184;2024-02-16T13:13:47;6.45;;;5.03;;
83487;SDS011;73424;49.994;8.184;2024-02-16T13:16:12;4.75;;;3.50;;
83487;SDS011;73424;49.994;8.184;2024-02-16T13:18:37;5.93;;;3.47;;
83487;SDS011;73424;49.994;8.184;2024-02-16T13:21:03;4.73;;;3.70;;
83487;SDS011;73424;49.994;8.184;2024-02-16T13:23:28;7.20;;;3.60;;
83487;SDS011;73424;49.994;8.184;2024-02-16T13:25:56;5.90;;;3.45;;
83487;SDS011;73424;49.994;8.184;2024-02-16T13:28:21;5.07;;;3.65;;
83487;SDS011;73424;49.994;8.184;2024-02-16T13:30:46;5.53;;;3.53;;
83487;SDS011;73424;49.994;8.184;2024-02-16T13:33:11;5.00;;;3.37;;
83487;SDS011;73424;49.994;8.184;2024-02-16T13:35:37;7.23;;;3.40;;
83487;SDS011;73424;49.994;8.184;2024-02-16T13:38:03;7.68;;;4.57;;
83487;SDS011;73424;49.994;8.184;2024-02-16T13:40:29;6.45;;;4.88;;
83487;SDS011;73424;49.994;8.184;2024-02-16T13:42:54;7.18;;;4.75;;
83487;SDS011;73424;49.994;8.184;2024-02-16T13:45:26;9.43;;;5.40;;
83487;SDS011;73424;49.994;8.184;2024-02-16T13:48:10;9.45;;;5.40;;
83487;SDS011;73424;49.994;8.184;2024-02-16T13:50:36;8.57;;;4.17;;
83487;SDS011;73424;49.994;8.184;2024-02-16T13:53:01;10.17;;;5.27;;
83487;SDS011;73424;49.994;8.184;2024-02-16T13:55:26;7.63;;;5.00;;
83487;SDS011;73424;49.994;8.184;2024-02-16T13:57:52;7.55;;;4.53;;
83487;SDS011;73424;49.994;8.184;2024-02-16T14:00:17;8.53;;;4.60;;
83487;SDS011;73424;49.994;8.184;2024-02-16T14:02:43;7.00;;;4.60;;
83487;SDS011;73424;49.994;8.184;2024-02-16T14:05:08;6.88;;;5.28;;
83487;SDS011;73424;49.994;8.184;2024-02-16T14:07:34;7.37;;;4.60;;
83487;SDS011;73424;49.994;8.184;2024-02-16T14:10:00;7.40;;;3.75;;
83487;SDS011;73424;49.994;8.184;2024-02-16T14:12:25;6.60;;;4.60;;
83487;SDS011;73424;49.994;8.184;2024-02-16T14:14:51;9.18;;;5.25;;
83487;SDS011;73424;49.994;8.184;2024-02-16T14:17:16;8.50;;;5.00;;
83487;SDS011;73424;49.994;8.184;2024-02-16T14:19:41;6.47;;;4.40;;
83487;SDS011;73424;49.994;8.184;2024-02-16T14:22:07;7.80;;;4.93;;
83487;SDS011;73424;49.994;8.184;2024-02-16T14:24:33;8.27;;;5.00;;
83487;SDS011;73424;49.994;8.184;2024-02-16T14:26:58;7.85;;;4.85;;
83487;SDS011;73424;49.994;8.184;2024-02-16T14:29:24;11.73;;;6.38;;
83487;SDS011;73424;49.994;8.184;2024-02-16T14:31:49;7.72;;;5.00;;
83487;SDS011;73424;49.994;8.184;2024-02-16T14:34:15;8.85;;;5.50;;
83487;SDS011;73424;49.994;8.184;2024-02-16T14:36:40;9.30;;;5.77;;
83487;SDS011;73424;49.994;8.184;2024-02-16T14:39:05;10.23;;;5.57;;
83487;SDS011;73424;49.994;8.184;2024-02-16T14:41:31;9.00;;;4.65;;